Terminal Aerodrome Forecast
Issued by NWS Cleveland, OH

Home | Current Version | Previous Version | Graphics & Text | Print | Product List | Glossary On
Versions: 1 2 3 4 5 6 7 8 9 10 11 12 13 14 15 16 17 18 19 20 21 22
051
FTUS41 KCLE 200858 AAA
TAFCLE
TAF AMD
KCLE 200858Z 2009/2112 21004KT P6SM BKN250
     FM201600 23008KT P6SM SCT045 BKN150
     FM201900 26008KT P6SM -SHRA VCTS SCT045CB BKN090
     FM210500 28006KT 5SM BR FEW080
     FM210800 30006KT 2SM BR FEW035
     FM211100 32006KT 3SM BR SCT015=

USA.gov is the U.S. government's official web portal to all federal, state and local government web resources and services.